createdAt,value
2017-12-09T00:00:55.991Z,99.1
2017-12-09T00:01:56.701Z,99.7
2017-12-09T00:02:57.421Z,98.4
2017-12-09T00:03:58.252Z,98.6
2017-12-09T00:04:58.971Z,98.6
2017-12-09T00:05:59.685Z,98.4
2017-12-09T00:07:00.471Z,98.7
2017-12-09T00:08:01.196Z,98.7
2017-12-09T00:09:01.855Z,100.0
2017-12-09T00:10:02.569Z,98.9
2017-12-09T00:11:03.282Z,99.5
2017-12-09T00:12:03.995Z,100.0
2017-12-09T00:13:04.708Z,100.0
2017-12-09T00:14:05.422Z,100.0
2017-12-09T00:15:06.132Z,100.0
2017-12-09T00:16:06.851Z,100.0
2017-12-09T00:17:07.572Z,100.0
2017-12-09T00:18:08.272Z,100.0
2017-12-09T00:19:08.991Z,100.0
2017-12-09T00:20:09.712Z,100.0
2017-12-09T00:21:10.423Z,100.0
2017-12-09T00:22:11.217Z,100.0
2017-12-09T00:23:11.992Z,100.0
2017-12-09T00:24:12.698Z,100.0
2017-12-09T00:25:13.413Z,100.0
2017-12-09T00:26:14.214Z,100.0
2017-12-09T00:27:15.009Z,100.0
2017-12-09T00:28:15.725Z,100.0
2017-12-09T00:29:16.596Z,100.0
2017-12-09T00:30:17.390Z,100.0
2017-12-09T00:31:18.102Z,100.0
2017-12-09T00:32:18.817Z,100.0
2017-12-09T00:33:19.531Z,100.0
2017-12-09T00:34:20.245Z,100.0
2017-12-09T00:35:20.962Z,100.0
2017-12-09T00:36:21.753Z,100.0
2017-12-09T00:37:22.448Z,100.0
2017-12-09T00:38:23.211Z,100.0
2017-12-09T00:39:23.945Z,100.0
2017-12-09T00:40:24.664Z,100.0
2017-12-09T00:41:25.441Z,100.0
2017-12-09T00:42:26.162Z,100.0
2017-12-09T00:43:26.953Z,100.0
2017-12-09T00:44:27.669Z,100.0
2017-12-09T00:45:28.429Z,100.0
2017-12-09T00:46:29.144Z,100.0
2017-12-09T00:47:29.938Z,100.0
2017-12-09T00:48:30.722Z,100.0
2017-12-09T00:49:31.496Z,100.0
2017-12-09T00:50:32.242Z,100.0
2017-12-09T00:51:32.956Z,100.0
2017-12-09T00:52:33.677Z,100.0
2017-12-09T00:53:34.452Z,100.0
2017-12-09T00:54:35.171Z,100.0
2017-12-09T00:55:35.886Z,100.0
2017-12-09T00:56:36.620Z,100.0
2017-12-09T00:57:37.364Z,100.0
2017-12-09T00:58:38.163Z,100.0
2017-12-09T00:59:38.883Z,100.0
2017-12-09T01:00:39.669Z,100.0
2017-12-09T01:01:40.384Z,100.0
2017-12-09T01:02:41.177Z,100.0
2017-12-09T01:03:42.002Z,100.0
2017-12-09T01:04:42.727Z,100.0
2017-12-09T01:05:43.444Z,100.0
2017-12-09T01:06:44.153Z,100.0
2017-12-09T01:07:44.863Z,100.0
2017-12-09T01:08:45.583Z,100.0
2017-12-09T01:09:46.378Z,100.0
2017-12-09T01:10:47.153Z,100.0
2017-12-09T01:11:47.922Z,100.0
2017-12-09T01:12:48.632Z,100.0
2017-12-09T01:13:49.341Z,100.0
2017-12-09T01:14:50.064Z,100.0
2017-12-09T01:15:50.864Z,100.0
2017-12-09T01:16:51.641Z,100.0
2017-12-09T01:17:52.359Z,100.0
2017-12-09T01:18:53.087Z,100.0
2017-12-09T01:19:53.853Z,100.0
2017-12-09T01:20:54.636Z,100.0
2017-12-09T01:21:55.405Z,100.0
2017-12-09T01:22:56.175Z,100.0
2017-12-09T01:23:56.973Z,100.0
2017-12-09T01:24:57.689Z,100.0
2017-12-09T01:25:58.410Z,100.0
2017-12-09T01:26:59.206Z,100.0
2017-12-09T01:27:59.992Z,100.0
2017-12-09T01:29:00.764Z,100.0
2017-12-09T01:30:01.472Z,100.0
2017-12-09T01:31:02.190Z,100.0
2017-12-09T01:32:02.966Z,100.0
2017-12-09T01:33:03.690Z,100.0
2017-12-09T01:34:04.523Z,100.0
2017-12-09T01:35:05.237Z,100.0
2017-12-09T01:36:05.949Z,100.0
2017-12-09T01:37:06.756Z,100.0
2017-12-09T01:38:07.553Z,100.0
2017-12-09T01:39:08.264Z,100.0
2017-12-09T01:40:09.052Z,100.0
2017-12-09T01:41:09.773Z,100.0
2017-12-09T01:42:10.573Z,100.0
2017-12-09T01:43:11.361Z,100.0
2017-12-09T01:44:12.123Z,100.0
2017-12-09T01:45:12.845Z,100.0
2017-12-09T01:46:13.564Z,100.0
2017-12-09T01:47:14.354Z,100.0
2017-12-09T01:48:15.141Z,100.0
2017-12-09T01:49:15.972Z,100.0
2017-12-09T01:50:16.687Z,100.0
2017-12-09T01:51:17.402Z,100.0
2017-12-09T01:52:18.116Z,100.0
2017-12-09T01:53:18.834Z,100.0
2017-12-09T01:54:19.545Z,100.0
2017-12-09T01:55:20.352Z,100.0
2017-12-09T01:56:21.118Z,100.0
2017-12-09T01:57:21.903Z,100.0
2017-12-09T01:58:22.693Z,100.0
2017-12-09T01:59:23.409Z,100.0
2017-12-09T02:00:24.183Z,100.0
2017-12-09T02:01:24.952Z,100.0
2017-12-09T02:02:25.671Z,100.0
2017-12-09T02:03:26.394Z,100.0
2017-12-09T02:04:27.192Z,100.0
2017-12-09T02:05:27.922Z,100.0
2017-12-09T02:06:28.723Z,100.0
2017-12-09T02:07:29.517Z,100.0
2017-12-09T02:08:30.304Z,100.0
2017-12-09T02:09:31.084Z,100.0
2017-12-09T02:10:31.873Z,100.0
2017-12-09T02:11:32.644Z,100.0
2017-12-09T02:12:33.433Z,100.0
2017-12-09T02:13:34.153Z,100.0
2017-12-09T02:14:34.935Z,100.0
2017-12-09T02:15:35.643Z,100.0
2017-12-09T02:16:36.482Z,100.0
2017-12-09T02:17:37.221Z,100.0
2017-12-09T02:18:38.009Z,100.0
2017-12-09T02:19:38.803Z,100.0
2017-12-09T02:20:39.540Z,100.0
2017-12-09T02:21:40.313Z,100.0
2017-12-09T02:22:41.094Z,100.0
2017-12-09T02:23:41.882Z,100.0
2017-12-09T02:24:42.602Z,100.0
2017-12-09T02:25:43.321Z,100.0
2017-12-09T02:26:44.292Z,100.0
2017-12-09T02:27:45.013Z,100.0
2017-12-09T02:28:45.836Z,100.0
2017-12-09T02:29:46.544Z,100.0
2017-12-09T02:30:47.343Z,100.0
2017-12-09T02:31:48.203Z,100.0
2017-12-09T02:32:48.992Z,100.0
2017-12-09T02:33:49.711Z,100.0
2017-12-09T02:34:50.422Z,100.0
2017-12-09T02:35:51.139Z,100.0
2017-12-09T02:36:51.961Z,100.0
2017-12-09T02:37:52.670Z,100.0
2017-12-09T02:38:53.398Z,100.0
2017-12-09T02:39:54.146Z,100.0
2017-12-09T02:40:54.922Z,100.0
2017-12-09T02:41:55.638Z,100.0
2017-12-09T02:42:56.422Z,100.0
2017-12-09T02:43:57.212Z,100.0
2017-12-09T02:44:57.979Z,100.0
2017-12-09T02:45:58.754Z,100.0
2017-12-09T02:46:59.462Z,100.0
2017-12-09T02:48:00.182Z,100.0
2017-12-09T02:49:00.892Z,100.0
2017-12-09T02:50:01.665Z,100.0
2017-12-09T02:51:02.457Z,100.0
2017-12-09T02:52:03.165Z,100.0
2017-12-09T02:53:03.923Z,100.0
2017-12-09T02:54:04.717Z,100.0
2017-12-09T02:55:05.524Z,100.0
2017-12-09T02:56:06.316Z,100.0
2017-12-09T02:57:07.015Z,100.0
2017-12-09T02:58:07.722Z,100.0
2017-12-09T02:59:08.433Z,100.0
2017-12-09T03:00:09.222Z,100.0
2017-12-09T03:01:10.016Z,100.0
2017-12-09T03:02:10.793Z,100.0
2017-12-09T03:03:11.579Z,100.0
2017-12-09T03:04:12.362Z,100.0
2017-12-09T03:05:13.136Z,100.0
2017-12-09T03:06:13.844Z,100.0
2017-12-09T03:07:14.647Z,100.0
2017-12-09T03:08:15.412Z,100.0
2017-12-09T03:09:16.125Z,100.0
2017-12-09T03:10:16.960Z,100.0
2017-12-09T03:11:17.753Z,100.0
2017-12-09T03:12:18.550Z,100.0
2017-12-09T03:13:19.312Z,100.0
2017-12-09T03:14:20.042Z,100.0
2017-12-09T03:15:20.881Z,100.0
2017-12-09T03:16:21.599Z,100.0
2017-12-09T03:17:22.378Z,100.0
2017-12-09T03:18:23.103Z,100.0
2017-12-09T03:19:23.857Z,100.0
2017-12-09T03:20:24.622Z,100.0
2017-12-09T03:21:25.336Z,100.0
2017-12-09T03:22:26.052Z,100.0
2017-12-09T03:23:26.771Z,100.0
2017-12-09T03:24:27.486Z,100.0
2017-12-09T03:25:28.201Z,100.0
2017-12-09T03:26:28.908Z,100.0
2017-12-09T03:27:29.623Z,100.0
2017-12-09T03:28:30.350Z,100.0
2017-12-09T03:29:31.114Z,100.0
2017-12-09T03:30:31.898Z,100.0
2017-12-09T03:31:32.672Z,100.0
2017-12-09T03:32:33.461Z,100.0
2017-12-09T03:33:34.234Z,100.0
2017-12-09T03:34:35.018Z,100.0
2017-12-09T03:35:35.796Z,100.0
2017-12-09T03:36:36.513Z,100.0
2017-12-09T03:37:37.293Z,100.0
2017-12-09T03:38:38.053Z,100.0
2017-12-09T03:39:38.820Z,100.0
2017-12-09T03:40:39.533Z,100.0
2017-12-09T03:41:40.253Z,100.0
2017-12-09T03:42:41.008Z,100.0
2017-12-09T03:43:41.839Z,100.0
2017-12-09T03:44:42.554Z,100.0
2017-12-09T03:45:43.321Z,100.0
2017-12-09T03:46:44.072Z,100.0
2017-12-09T03:47:44.788Z,100.0
2017-12-09T03:48:45.556Z,100.0
2017-12-09T03:49:46.339Z,100.0
2017-12-09T03:50:47.075Z,100.0
2017-12-09T03:51:47.824Z,100.0
2017-12-09T03:52:48.619Z,100.0
2017-12-09T03:53:49.372Z,100.0
2017-12-09T03:54:50.084Z,100.0
2017-12-09T03:55:50.793Z,100.0
2017-12-09T03:56:51.512Z,100.0
2017-12-09T03:57:52.227Z,100.0
2017-12-09T03:58:52.931Z,100.0
2017-12-09T03:59:53.636Z,100.0
2017-12-09T04:00:54.362Z,100.0
2017-12-09T04:01:55.092Z,100.0
2017-12-09T04:02:55.921Z,100.0
2017-12-09T04:03:56.643Z,100.0
2017-12-09T04:04:57.442Z,100.0
2017-12-09T04:05:58.162Z,100.0
2017-12-09T04:06:58.882Z,100.0
2017-12-09T04:07:59.671Z,100.0
2017-12-09T04:09:00.384Z,100.0
2017-12-09T04:10:01.162Z,100.0
2017-12-09T04:11:01.887Z,100.0
2017-12-09T04:12:02.672Z,100.0
2017-12-09T04:13:03.404Z,100.0
2017-12-09T04:14:04.171Z,100.0
2017-12-09T04:15:04.903Z,100.0
2017-12-09T04:16:05.739Z,100.0
2017-12-09T04:17:06.532Z,100.0
2017-12-09T04:18:07.255Z,100.0
2017-12-09T04:19:07.971Z,100.0
2017-12-09T04:20:08.753Z,100.0
2017-12-09T04:21:09.586Z,100.0
2017-12-09T04:22:10.352Z,100.0
2017-12-09T04:23:11.071Z,100.0
2017-12-09T04:24:11.792Z,100.0
2017-12-09T04:25:12.514Z,100.0
2017-12-09T04:26:13.221Z,100.0
2017-12-09T04:27:14.019Z,100.0
2017-12-09T04:28:14.731Z,100.0
2017-12-09T04:29:15.447Z,100.0
2017-12-09T04:30:16.173Z,100.0
2017-12-09T04:31:16.931Z,100.0
2017-12-09T04:32:17.645Z,100.0
2017-12-09T04:33:18.352Z,100.0
2017-12-09T04:34:19.066Z,100.0
2017-12-09T04:35:19.787Z,100.0
2017-12-09T04:36:20.593Z,100.0
2017-12-09T04:37:21.381Z,99.3
2017-12-09T04:38:22.111Z,95.8
2017-12-09T04:39:22.882Z,94.0
2017-12-09T04:40:23.593Z,92.7
2017-12-09T04:41:24.309Z,93.8
2017-12-09T04:42:25.030Z,92.6
2017-12-09T04:43:25.745Z,91.2
2017-12-09T04:44:26.532Z,91.2
2017-12-09T04:45:27.241Z,91.6
2017-12-09T04:46:27.956Z,91.3
2017-12-09T04:47:28.704Z,91.5
2017-12-09T04:48:29.422Z,90.9
2017-12-09T04:49:30.208Z,90.6
2017-12-09T04:50:31.026Z,90.4
2017-12-09T04:51:31.787Z,90.8
2017-12-09T04:52:32.487Z,89.9
2017-12-09T04:53:33.202Z,89.9
2017-12-09T04:54:33.921Z,90.4
2017-12-09T04:55:34.736Z,91.5
2017-12-09T04:56:35.444Z,91.6
2017-12-09T04:57:36.164Z,90.1
2017-12-09T04:58:36.942Z,89.1
2017-12-09T04:59:37.715Z,88.1
2017-12-09T05:00:38.558Z,88.4
2017-12-09T05:01:39.332Z,87.6
2017-12-09T05:02:40.054Z,87.4
2017-12-09T05:03:40.857Z,87.0
2017-12-09T05:04:41.619Z,86.7
2017-12-09T05:05:42.380Z,86.1
2017-12-09T05:06:43.092Z,86.1
2017-12-09T05:07:43.801Z,85.1
2017-12-09T05:08:44.513Z,85.4
2017-12-09T05:09:45.239Z,85.7
2017-12-09T05:10:46.010Z,85.7
2017-12-09T05:11:46.734Z,85.0
2017-12-09T05:12:47.522Z,85.0
2017-12-09T05:13:48.231Z,85.1
2017-12-09T05:14:48.943Z,85.0
2017-12-09T05:15:49.704Z,85.1
2017-12-09T05:16:50.412Z,85.0
2017-12-09T05:17:51.125Z,85.1
2017-12-09T05:18:51.846Z,85.1
2017-12-09T05:19:52.638Z,85.5
2017-12-09T05:20:53.385Z,85.0
2017-12-09T05:21:54.171Z,85.2
2017-12-09T05:22:54.885Z,85.1
2017-12-09T05:23:55.607Z,85.1
2017-12-09T05:24:56.406Z,85.1
2017-12-09T05:25:57.192Z,85.2
2017-12-09T05:26:57.902Z,85.2
2017-12-09T05:27:58.621Z,85.2
2017-12-09T05:28:59.333Z,85.1
2017-12-09T05:30:00.044Z,85.2
2017-12-09T05:31:00.762Z,85.3
2017-12-09T05:32:01.472Z,85.2
2017-12-09T05:33:02.184Z,85.7
2017-12-09T05:34:02.912Z,85.3
2017-12-09T05:35:03.631Z,85.4
2017-12-09T05:36:04.344Z,85.0
2017-12-09T05:37:05.144Z,85.2
2017-12-09T05:38:05.932Z,85.3
2017-12-09T05:39:06.691Z,85.2
2017-12-09T05:40:07.486Z,85.1
2017-12-09T05:41:08.236Z,85.1
2017-12-09T05:42:09.002Z,85.2
2017-12-09T05:43:09.722Z,85.5
2017-12-09T05:44:10.435Z,85.3
2017-12-09T05:45:11.172Z,85.2
2017-12-09T05:46:12.005Z,85.2
2017-12-09T05:47:12.722Z,85.1
2017-12-09T05:48:13.441Z,85.3
2017-12-09T05:49:14.162Z,85.3
2017-12-09T05:50:14.874Z,85.3
2017-12-09T05:51:15.676Z,85.1
2017-12-09T05:52:16.391Z,85.6
2017-12-09T05:53:17.102Z,85.8
2017-12-09T05:54:17.812Z,85.7
2017-12-09T05:55:18.523Z,86.1
2017-12-09T05:56:19.312Z,86.1
2017-12-09T05:57:20.025Z,86.3
2017-12-09T05:58:20.741Z,86.7
2017-12-09T05:59:21.452Z,86.5
2017-12-09T06:00:22.163Z,86.9
2017-12-09T06:01:22.871Z,86.5
2017-12-09T06:02:23.629Z,86.7
2017-12-09T06:03:24.435Z,87.1
2017-12-09T06:04:25.212Z,86.8
2017-12-09T06:05:26.005Z,87.6
2017-12-09T06:06:26.720Z,88.9
2017-12-09T06:07:27.552Z,90.8
2017-12-09T06:08:28.280Z,90.0
2017-12-09T06:09:28.999Z,90.6
2017-12-09T06:10:29.746Z,90.5
2017-12-09T06:11:30.461Z,90.4
2017-12-09T06:12:31.232Z,90.6
2017-12-09T06:13:31.952Z,90.5
2017-12-09T06:14:32.666Z,90.3
2017-12-09T06:15:33.381Z,90.3
2017-12-09T06:16:34.102Z,90.3
2017-12-09T06:17:34.866Z,90.7
2017-12-09T06:18:35.623Z,90.3
2017-12-09T06:19:36.404Z,90.2
2017-12-09T06:20:37.204Z,89.4
2017-12-09T06:21:37.983Z,89.9
2017-12-09T06:22:38.826Z,88.9
2017-12-09T06:23:39.538Z,89.2
2017-12-09T06:24:40.246Z,88.4
2017-12-09T06:25:40.962Z,89.8
2017-12-09T06:26:41.680Z,89.6
2017-12-09T06:27:42.396Z,90.3
2017-12-09T06:28:43.202Z,91.3
2017-12-09T06:29:43.911Z,91.0
2017-12-09T06:30:44.628Z,90.6
2017-12-09T06:31:45.471Z,90.6
2017-12-09T06:32:46.196Z,91.1
2017-12-09T06:33:46.906Z,89.7
2017-12-09T06:34:47.628Z,89.7
2017-12-09T06:35:48.412Z,89.7
2017-12-09T06:36:49.124Z,88.8
2017-12-09T06:37:49.902Z,89.4
2017-12-09T06:38:50.624Z,90.0
2017-12-09T06:39:51.440Z,90.9
2017-12-09T06:40:52.212Z,90.1
2017-12-09T06:41:52.933Z,90.0
2017-12-09T06:42:53.682Z,89.3
2017-12-09T06:43:54.395Z,89.9
2017-12-09T06:44:55.212Z,89.9
2017-12-09T06:45:55.933Z,90.0
2017-12-09T06:46:56.651Z,90.1
2017-12-09T06:47:57.361Z,90.7
2017-12-09T06:48:58.071Z,89.3
2017-12-09T06:49:58.837Z,88.4
2017-12-09T06:50:59.622Z,87.9
2017-12-09T06:52:00.426Z,87.7
2017-12-09T06:53:01.096Z,87.4
2017-12-09T06:54:01.856Z,86.2
2017-12-09T06:55:02.622Z,86.6
2017-12-09T06:56:03.338Z,85.2
2017-12-09T06:57:04.053Z,85.6
2017-12-09T06:58:04.762Z,85.1
2017-12-09T06:59:05.471Z,84.8
2017-12-09T07:00:06.183Z,84.6
2017-12-09T07:01:06.901Z,84.5
2017-12-09T07:02:07.633Z,84.8
2017-12-09T07:03:08.383Z,84.4
2017-12-09T07:04:09.102Z,84.6
2017-12-09T07:05:09.824Z,84.5
2017-12-09T07:06:10.611Z,84.6
2017-12-09T07:07:11.323Z,84.4
2017-12-09T07:08:12.124Z,84.5
2017-12-09T07:09:12.911Z,84.6
2017-12-09T07:10:13.682Z,84.4
2017-12-09T07:11:14.397Z,50.6
2017-12-09T07:12:15.164Z,49.8
2017-12-09T07:13:15.945Z,49.6
2017-12-09T07:14:16.671Z,49.6
2017-12-09T07:15:17.481Z,49.7
2017-12-09T07:16:18.200Z,49.8
2017-12-09T07:17:18.912Z,50.1
2017-12-09T07:18:19.635Z,50.0
2017-12-09T07:19:20.421Z,49.7
2017-12-09T07:20:21.142Z,49.8
2017-12-09T07:21:21.852Z,50.4
2017-12-09T07:22:22.571Z,50.3
2017-12-09T07:23:23.312Z,50.8
2017-12-09T07:24:24.029Z,50.4
2017-12-09T07:25:24.811Z,50.9
2017-12-09T07:26:25.539Z,51.3
2017-12-09T07:27:26.300Z,51.2
2017-12-09T07:28:27.032Z,51.7
2017-12-09T07:29:27.756Z,51.0
2017-12-09T07:30:28.522Z,52.0
2017-12-09T07:31:29.242Z,51.9
2017-12-09T07:32:29.957Z,52.0
2017-12-09T07:33:30.672Z,51.5
2017-12-09T07:34:31.473Z,51.6
2017-12-09T07:35:32.273Z,52.2
2017-12-09T07:36:32.985Z,52.1
2017-12-09T07:37:33.710Z,52.2
2017-12-09T07:38:34.468Z,52.2
2017-12-09T07:39:35.201Z,52.2
2017-12-09T07:40:35.943Z,52.6
2017-12-09T07:41:36.728Z,52.5
2017-12-09T07:42:37.540Z,53.1
2017-12-09T07:43:38.316Z,53.0
2017-12-09T07:44:39.088Z,53.3
2017-12-09T07:45:39.820Z,53.1
2017-12-09T07:46:40.542Z,52.7
2017-12-09T07:47:41.263Z,53.4
2017-12-09T07:48:42.069Z,53.5
2017-12-09T07:49:42.846Z,53.4
2017-12-09T07:50:43.642Z,53.4
2017-12-09T07:51:44.412Z,53.4
2017-12-09T07:52:45.131Z,53.4
2017-12-09T07:53:45.853Z,53.7
2017-12-09T07:54:46.655Z,53.6
2017-12-09T07:55:47.443Z,53.7
2017-12-09T07:56:48.247Z,53.8
2017-12-09T07:57:48.959Z,53.8
2017-12-09T07:58:49.744Z,53.9
2017-12-09T07:59:50.464Z,54.0
2017-12-09T08:00:51.273Z,54.9
2017-12-09T08:01:52.050Z,54.5
2017-12-09T08:02:52.763Z,54.5
2017-12-09T08:03:53.500Z,54.6
2017-12-09T08:04:54.330Z,55.2
2017-12-09T08:05:55.042Z,55.2
2017-12-09T08:06:55.802Z,55.4
2017-12-09T08:07:56.592Z,55.5
2017-12-09T08:08:57.311Z,56.0
2017-12-09T08:09:58.082Z,55.8
2017-12-09T08:10:58.802Z,56.1
2017-12-09T08:11:59.523Z,56.2
2017-12-09T08:13:00.312Z,56.4
2017-12-09T08:14:01.037Z,56.3
2017-12-09T08:15:01.888Z,56.7
2017-12-09T08:16:02.614Z,56.5
2017-12-09T08:17:03.413Z,56.5
2017-12-09T08:18:04.144Z,56.6
2017-12-09T08:19:04.862Z,57.0
2017-12-09T08:20:05.575Z,57.0
2017-12-09T08:21:06.291Z,56.7
2017-12-09T08:22:07.006Z,56.7
2017-12-09T08:23:07.724Z,56.9
2017-12-09T08:24:08.530Z,56.9
2017-12-09T08:25:09.352Z,57.4
2017-12-09T08:26:10.079Z,57.7
2017-12-09T08:27:10.880Z,57.6
2017-12-09T08:28:11.648Z,57.8
2017-12-09T08:29:12.453Z,57.3
2017-12-09T08:30:13.164Z,57.0
2017-12-09T08:31:13.882Z,57.5
2017-12-09T08:32:14.602Z,57.6
2017-12-09T08:33:15.314Z,58.1
2017-12-09T08:34:16.104Z,58.2
2017-12-09T08:35:16.913Z,58.1
2017-12-09T08:36:17.703Z,57.9
2017-12-09T08:37:18.473Z,58.1
2017-12-09T08:38:19.253Z,58.3
2017-12-09T08:39:20.022Z,58.8
2017-12-09T08:40:20.743Z,58.6
2017-12-09T08:41:21.461Z,59.0
2017-12-09T08:42:22.173Z,59.3
2017-12-09T08:43:22.972Z,60.0
2017-12-09T08:44:23.740Z,59.8
2017-12-09T08:45:24.452Z,60.6
2017-12-09T08:46:25.174Z,60.5
2017-12-09T08:47:25.973Z,61.6
2017-12-09T08:48:26.762Z,62.3
2017-12-09T08:49:27.492Z,62.9
2017-12-09T08:50:28.214Z,64.0
2017-12-09T08:51:28.923Z,64.6
2017-12-09T08:52:29.651Z,64.3
2017-12-09T08:53:30.472Z,64.6
2017-12-09T08:54:31.270Z,64.5
2017-12-09T08:55:32.083Z,64.7
2017-12-09T08:56:32.839Z,64.9
2017-12-09T08:57:33.561Z,64.9
2017-12-09T08:58:34.762Z,65.4
2017-12-09T08:59:35.681Z,65.3
2017-12-09T09:00:36.402Z,66.3
2017-12-09T09:01:37.141Z,67.4
2017-12-09T09:02:37.812Z,68.9
2017-12-09T09:03:38.551Z,70.5
2017-12-09T09:04:39.225Z,72.6
2017-12-09T09:05:40.018Z,73.6
2017-12-09T09:06:40.820Z,75.0
2017-12-09T09:07:41.594Z,77.6
2017-12-09T09:08:42.416Z,80.5
2017-12-09T09:09:43.218Z,83.3
2017-12-09T09:10:43.947Z,85.7
2017-12-09T09:11:44.747Z,86.3
2017-12-09T09:12:45.494Z,88.0
2017-12-09T09:13:46.277Z,91.0
2017-12-09T09:14:47.047Z,93.0
2017-12-09T09:15:47.766Z,94.9
2017-12-09T09:16:48.531Z,97.4
2017-12-09T09:17:49.266Z,99.5
2017-12-09T09:18:49.984Z,100.0
2017-12-09T09:19:51.779Z,100.0
2017-12-09T09:20:53.808Z,100.0
2017-12-09T09:21:54.812Z,100.0
2017-12-09T09:22:55.544Z,100.0
2017-12-09T09:23:56.330Z,100.0
2017-12-09T09:24:58.091Z,100.0
2017-12-09T09:25:59.115Z,100.0
2017-12-09T09:26:59.822Z,100.0
2017-12-09T09:28:00.544Z,100.0
2017-12-09T09:29:01.350Z,100.0
2017-12-09T09:30:02.110Z,100.0
2017-12-09T09:31:02.828Z,100.0
2017-12-09T09:32:03.600Z,100.0
2017-12-09T09:33:04.379Z,100.0
2017-12-09T09:34:05.114Z,100.0
2017-12-09T09:35:05.942Z,100.0
2017-12-09T09:36:06.702Z,100.0
2017-12-09T09:37:07.511Z,100.0
2017-12-09T09:38:08.282Z,100.0
2017-12-09T09:39:09.002Z,100.0
2017-12-09T09:40:09.721Z,100.0
2017-12-09T09:41:10.451Z,100.0
2017-12-09T09:42:11.215Z,100.0
2017-12-09T09:43:11.937Z,100.0
2017-12-09T09:44:12.662Z,100.0
2017-12-09T09:45:13.392Z,100.0
2017-12-09T09:46:14.114Z,100.0
2017-12-09T09:47:14.927Z,100.0
2017-12-09T09:48:15.713Z,100.0
2017-12-09T09:49:16.442Z,100.0
2017-12-09T09:50:17.168Z,100.0
2017-12-09T09:51:17.956Z,100.0
2017-12-09T09:52:18.681Z,100.0
2017-12-09T09:53:19.467Z,100.0
2017-12-09T09:54:20.253Z,100.0
2017-12-09T09:55:21.053Z,100.0
2017-12-09T09:56:21.784Z,100.0
2017-12-09T09:57:22.503Z,100.0
2017-12-09T09:58:23.223Z,100.0
2017-12-09T09:59:24.003Z,100.0
2017-12-09T10:00:24.764Z,100.0
2017-12-09T10:01:25.556Z,100.0
2017-12-09T10:02:26.347Z,100.0
2017-12-09T10:03:27.162Z,100.0
2017-12-09T10:04:27.882Z,100.0
2017-12-09T10:05:28.608Z,100.0
2017-12-09T10:06:29.405Z,100.0
2017-12-09T10:07:30.204Z,100.0
2017-12-09T10:08:30.980Z,100.0
2017-12-09T10:09:31.712Z,100.0
2017-12-09T10:10:32.446Z,100.0
2017-12-09T10:11:33.184Z,100.0
2017-12-09T10:12:33.973Z,100.0
2017-12-09T10:13:34.757Z,100.0
2017-12-09T10:14:35.555Z,100.0
2017-12-09T10:15:36.353Z,100.0
2017-12-09T10:16:37.143Z,100.0
2017-12-09T10:17:37.876Z,100.0
2017-12-09T10:18:38.652Z,100.0
2017-12-09T10:19:39.360Z,100.0
2017-12-09T10:20:40.089Z,100.0
2017-12-09T10:21:40.920Z,100.0
2017-12-09T10:22:41.677Z,100.0
2017-12-09T10:23:42.486Z,100.0
2017-12-09T10:24:43.207Z,100.0
2017-12-09T10:25:43.989Z,100.0
2017-12-09T10:26:45.760Z,100.0
2017-12-09T10:27:46.773Z,100.0
2017-12-09T10:28:49.167Z,100.0
2017-12-09T10:29:50.089Z,100.0
2017-12-09T10:30:51.969Z,100.0
2017-12-09T10:31:53.970Z,100.0
2017-12-09T10:32:55.336Z,100.0
2017-12-09T10:33:58.065Z,100.0
2017-12-09T10:34:59.847Z,100.0
2017-12-09T10:36:01.877Z,100.0
2017-12-09T10:37:02.957Z,100.0
2017-12-09T10:38:03.760Z,100.0
2017-12-09T10:39:04.539Z,100.0
2017-12-09T10:40:06.512Z,100.0
2017-12-09T10:41:07.460Z,100.0
2017-12-09T10:42:08.171Z,100.0
2017-12-09T10:43:08.906Z,100.0
2017-12-09T10:44:09.735Z,100.0
2017-12-09T10:45:10.464Z,100.0
2017-12-09T10:46:11.196Z,100.0
2017-12-09T10:47:11.985Z,100.0
2017-12-09T10:48:12.722Z,100.0
2017-12-09T10:49:13.443Z,100.0
2017-12-09T10:50:14.167Z,100.0
2017-12-09T10:51:14.941Z,100.0
2017-12-09T10:52:15.666Z,100.0
2017-12-09T10:53:16.401Z,100.0
2017-12-09T10:54:17.228Z,100.0
2017-12-09T10:55:17.962Z,100.0
2017-12-09T10:56:18.685Z,100.0
2017-12-09T10:57:19.498Z,100.0
2017-12-09T10:58:20.292Z,100.0
2017-12-09T10:59:21.188Z,100.0
2017-12-09T11:00:21.988Z,100.0
2017-12-09T11:01:22.804Z,100.0
2017-12-09T11:02:23.649Z,100.0
2017-12-09T11:03:24.389Z,100.0
2017-12-09T11:04:25.202Z,100.0
2017-12-09T11:05:25.931Z,100.0
2017-12-09T11:06:26.713Z,100.0
2017-12-09T11:07:27.442Z,100.0
2017-12-09T11:08:28.168Z,100.0
2017-12-09T11:09:28.947Z,100.0
2017-12-09T11:10:29.727Z,100.0
2017-12-09T11:11:30.524Z,100.0
2017-12-09T11:12:31.277Z,100.0
2017-12-09T11:13:31.953Z,100.0
2017-12-09T11:14:32.767Z,100.0
2017-12-09T11:15:33.557Z,100.0
2017-12-09T11:16:34.287Z,100.0
2017-12-09T11:17:35.088Z,100.0
2017-12-09T11:18:35.862Z,100.0
2017-12-09T11:19:36.583Z,100.0
2017-12-09T11:20:37.377Z,100.0
2017-12-09T11:21:38.142Z,100.0
2017-12-09T11:22:38.873Z,100.0
2017-12-09T11:23:39.646Z,100.0
2017-12-09T11:24:40.437Z,100.0
2017-12-09T11:25:41.182Z,100.0
2017-12-09T11:26:41.986Z,100.0
2017-12-09T11:27:43.122Z,100.0
2017-12-09T11:28:43.823Z,100.0
2017-12-09T11:29:44.605Z,100.0
2017-12-09T11:30:45.324Z,100.0
2017-12-09T11:31:46.053Z,100.0
2017-12-09T11:32:46.763Z,100.0
2017-12-09T11:33:47.492Z,100.0
2017-12-09T11:34:48.213Z,100.0
2017-12-09T11:35:48.947Z,100.0
2017-12-09T11:36:49.763Z,100.0
2017-12-09T11:37:50.597Z,100.0
2017-12-09T11:38:51.392Z,100.0
2017-12-09T11:39:52.118Z,100.0
2017-12-09T11:40:52.855Z,100.0
2017-12-09T11:41:53.632Z,100.0
2017-12-09T11:42:54.464Z,100.0
2017-12-09T11:43:55.273Z,100.0
2017-12-09T11:44:55.996Z,100.0
2017-12-09T11:45:56.773Z,100.0
2017-12-09T11:46:57.505Z,100.0
2017-12-09T11:47:58.283Z,100.0
2017-12-09T11:48:59.012Z,100.0
2017-12-09T11:49:59.737Z,100.0
2017-12-09T11:51:00.465Z,100.0
2017-12-09T11:52:01.247Z,100.0
2017-12-09T11:53:02.019Z,100.0
2017-12-09T11:54:02.739Z,100.0
2017-12-09T11:55:03.538Z,100.0
2017-12-09T11:56:04.305Z,100.0
2017-12-09T11:57:05.113Z,100.0
2017-12-09T11:58:07.422Z,100.0
2017-12-09T11:59:09.503Z,100.0
2017-12-09T12:00:11.580Z,100.0
2017-12-09T12:01:12.446Z,100.0
2017-12-09T12:02:13.240Z,100.0
2017-12-09T12:03:14.063Z,100.0
2017-12-09T12:04:14.846Z,100.0
2017-12-09T12:05:15.681Z,100.0
2017-12-09T12:06:16.652Z,100.0
2017-12-09T12:07:17.915Z,100.0
2017-12-09T12:08:18.936Z,100.0
2017-12-09T12:09:19.788Z,100.0
2017-12-09T12:10:20.711Z,100.0
2017-12-09T12:11:21.714Z,100.0
2017-12-09T12:12:22.577Z,100.0
2017-12-09T12:13:24.336Z,100.0
2017-12-09T12:14:26.401Z,100.0
2017-12-09T12:15:28.348Z,100.0
2017-12-09T12:16:30.565Z,100.0
2017-12-09T12:17:32.622Z,100.0
2017-12-09T12:18:33.552Z,100.0
2017-12-09T12:19:34.268Z,100.0
2017-12-09T12:20:35.109Z,100.0
2017-12-09T12:21:35.860Z,100.0
2017-12-09T12:22:36.601Z,100.0
2017-12-09T12:23:37.321Z,100.0
2017-12-09T12:24:38.060Z,100.0
2017-12-09T12:25:38.798Z,100.0
2017-12-09T12:26:39.531Z,100.0
2017-12-09T12:27:40.360Z,100.0
2017-12-09T12:28:41.135Z,100.0
2017-12-09T12:29:41.877Z,100.0
2017-12-09T12:30:42.678Z,100.0
2017-12-09T12:31:43.488Z,100.0
2017-12-09T12:32:44.272Z,100.0
2017-12-09T12:33:44.992Z,100.0
2017-12-09T12:34:45.708Z,100.0
2017-12-09T12:35:46.421Z,100.0
2017-12-09T12:36:47.141Z,100.0
2017-12-09T12:37:47.914Z,100.0
2017-12-09T12:38:48.724Z,100.0
2017-12-09T12:39:49.498Z,100.0
2017-12-09T12:40:50.315Z,100.0
2017-12-09T12:41:51.107Z,100.0
2017-12-09T12:42:51.870Z,100.0
2017-12-09T12:43:52.602Z,100.0
2017-12-09T12:44:53.325Z,100.0
2017-12-09T12:45:54.127Z,100.0
2017-12-09T12:46:54.970Z,100.0
2017-12-09T12:47:55.711Z,100.0
2017-12-09T12:48:56.435Z,100.0
2017-12-09T12:49:57.164Z,100.0
2017-12-09T12:50:57.841Z,100.0
2017-12-09T12:51:58.626Z,100.0
2017-12-09T12:52:59.392Z,100.0
2017-12-09T12:54:00.111Z,100.0
2017-12-09T12:55:00.866Z,100.0
2017-12-09T12:56:01.591Z,100.0
2017-12-09T12:57:02.375Z,100.0
2017-12-09T12:58:03.177Z,100.0
2017-12-09T12:59:03.984Z,100.0
2017-12-09T13:00:04.745Z,100.0
2017-12-09T13:01:05.463Z,100.0
2017-12-09T13:02:06.183Z,100.0
2017-12-09T13:03:06.982Z,100.0
2017-12-09T13:04:07.704Z,100.0
2017-12-09T13:05:08.501Z,100.0
2017-12-09T13:06:09.222Z,100.0
2017-12-09T13:07:09.951Z,100.0
2017-12-09T13:08:10.679Z,100.0
2017-12-09T13:09:11.476Z,100.0
2017-12-09T13:10:12.247Z,100.0
2017-12-09T13:11:12.966Z,100.0
2017-12-09T13:12:13.694Z,100.0